Littleport, United Kingdom
Current Conditions -  °F | °C
As of 4:53 PM on Saturday 22 Nov 2014 (Local Time) from EGUN Reporting Station
Broken Clouds Broken Clouds  
Wind Chill: 55°   Ceiling: 4100
Heat Index: 55°   Visibility: 6mi
Dew Point: 54°   Wind: 6mph
Humidity: 94%   Direction: 160°SSE
Pressure: 29.93"   Gusts: NA
Location:  52.46°N, 0.31°E
Report Text: EGUN 221653Z AUTO 16005KT 9999 BKN041 BKN100 13/12 A2993 RMK AO2
Loading
Personal Weather Stations






























Interactive Weather Map New forecast layout! Learn more

10-Day Weather Forecast

Advertisements
Track Severe Weather on mobile